Terminal Aerodrome Forecast
Issued by NWS Twin Cities, MN

Home | Current Version | Previous Version | Graphics & Text | Print | Product List | Glossary On
Versions: 1 2 3 4 5 6 7 8 9 10 11 12 13 14 15 16 17 18 19 20
000
FTUS43 KMPX 282343
TAFSTC
TAF
KSTC 282343Z 2900/2924 17009KT P6SM SCT035
      TEMPO 2905/2908 TSRA OVC050CB
     FM290800 16005KT 3SM BR SCT005 BKN060
     FM291400 18008KT P6SM BKN060=

USA.gov is the U.S. government's official web portal to all federal, state and local government web resources and services.